Time;durP1;ratioP1;P1;durP2;ratioP2;P2;SDS_P1;SDS_P2;PMS_P1;PMS_P2;Temp;Humidity;BMP_temperature;BMP_pressure;BME280_temperature;BME280_humidity;BME280_pressure;Samples;Min_cycle;Max_cycle;Signal;HPM_P1;HPM_P2
2023/06/20 00:01:26;;;;;;;107.93;95.32;;;;;;;15.33;100.00;101056.78;6095857;23;20022;-86
2023/06/20 00:03:53;;;;;;;105.03;94.45;;;;;;;15.39;100.00;101058.56;6096764;23;20019;-87
2023/06/20 00:06:26;;;;;;;88.50;78.88;;;;;;;15.60;100.00;101057.19;6097172;23;20026;-86
2023/06/20 00:08:53;;;;;;;97.28;82.70;;;;;;;15.64;100.00;101061.03;6096749;23;20018;-87
2023/06/20 00:11:27;;;;;;;115.97;105.07;;;;;;;15.72;100.00;101058.06;6097100;23;20022;-87
2023/06/20 00:13:58;;;;;;;103.35;92.97;;;;;;;15.48;100.00;101065.19;6095922;23;20022;-82
2023/06/20 00:16:26;;;;;;;95.43;85.40;;;;;;;15.49;100.00;101053.47;6096370;23;20368;-82
2023/06/20 00:19:06;;;;;;;94.03;84.85;;;;;;;15.35;100.00;101052.84;6095880;23;20018;-82
2023/06/20 00:21:32;;;;;;;90.22;81.20;;;;;;;15.31;100.00;101062.38;6096017;23;20026;-81
2023/06/20 00:23:59;;;;;;;84.47;76.03;;;;;;;15.20;100.00;101067.69;6096244;23;20029;-82
2023/06/20 00:26:26;;;;;;;93.70;83.95;;;;;;;15.39;100.00;101055.88;6095866;23;20108;-82
2023/06/20 00:28:53;;;;;;;101.53;92.15;;;;;;;15.34;100.00;101056.59;6096335;23;20018;-82
2023/06/20 00:31:20;;;;;;;84.50;75.82;;;;;;;15.21;100.00;101055.94;6095381;23;20058;-82
2023/06/20 00:33:48;;;;;;;103.85;84.60;;;;;;;15.25;100.00;101060.63;6095269;23;20014;-82
2023/06/20 00:36:15;;;;;;;78.82;70.43;;;;;;;15.17;100.00;101049.44;6095459;23;20089;-82
2023/06/20 00:38:48;;;;;;;82.90;74.18;;;;;;;15.26;100.00;101045.38;6095754;23;20023;-82
2023/06/20 00:41:34;;;;;;;85.00;72.50;;;;;;;15.12;100.00;101040.22;6095966;23;20045;-82
2023/06/20 00:44:03;;;;;;;77.97;69.68;;;;;;;15.23;100.00;101040.50;6085876;23;20423;-82
2023/06/20 00:46:33;;;;;;;80.25;71.15;;;;;;;15.20;100.00;101046.31;6095344;23;20417;-82
2023/06/20 00:49:04;;;;;;;77.45;69.68;;;;;;;15.03;100.00;101036.22;6095782;23;20029;-82
2023/06/20 00:51:31;;;;;;;78.45;70.53;;;;;;;14.99;100.00;101044.94;6095536;23;20018;-81
2023/06/20 00:54:15;;;;;;;75.60;66.32;;;;;;;15.16;100.00;101051.28;6095054;23;20014;-81
2023/06/20 00:56:43;;;;;;;73.20;63.53;;;;;;;15.29;100.00;101048.41;6038234;23;20342;-82
2023/06/20 00:59:13;;;;;;;74.78;65.30;;;;;;;14.87;100.00;101032.34;6038693;23;20023;-82
2023/06/20 01:01:46;;;;;;;78.75;65.97;;;;;;;14.99;100.00;101031.56;6038126;23;20023;-82
2023/06/20 01:04:14;;;;;;;83.50;68.20;;;;;;;15.07;100.00;101036.63;6037824;23;20024;-81
2023/06/20 01:06:46;;;;;;;86.25;69.97;;;;;;;15.06;100.00;101029.59;6038160;23;20026;-82
2023/06/20 01:09:19;;;;;;;76.80;65.18;;;;;;;14.98;100.00;101037.97;6038309;23;20031;-87
2023/06/20 01:11:56;;;;;;;78.75;69.97;;;;;;;14.92;100.00;101041.53;6038674;23;20427;-87
2023/06/20 01:14:31;;;;;;;78.85;70.82;;;;;;;15.07;100.00;101042.78;6038646;23;20372;-87
2023/06/20 01:17:04;;;;;;;72.25;64.45;;;;;;;14.96;100.00;101048.06;6038624;23;20027;-87
2023/06/20 01:20:12;;;;;;;74.57;64.93;;;;;;;15.12;100.00;101034.03;6038668;23;20023;-87
2023/06/20 01:22:50;;;;;;;75.45;65.40;;;;;;;15.02;100.00;101047.97;6038759;23;20031;-87
2023/06/20 01:25:24;;;;;;;86.10;73.38;;;;;;;14.94;100.00;101050.16;6038792;23;20024;-87
2023/06/20 01:28:03;;;;;;;76.10;68.25;;;;;;;14.92;100.00;101054.91;6038632;23;20019;-87
2023/06/20 01:30:43;;;;;;;73.50;65.43;;;;;;;15.04;100.00;101053.94;6038981;23;20378;-87
2023/06/20 01:33:18;;;;;;;79.70;63.65;;;;;;;14.97;100.00;101050.50;6038614;23;20027;-87
2023/06/20 01:35:48;;;;;;;86.97;68.88;;;;;;;15.02;100.00;101047.97;6038579;23;20537;-87
2023/06/20 01:38:21;;;;;;;79.20;65.28;;;;;;;15.01;100.00;101051.72;6038565;23;20041;-86
2023/06/20 01:40:50;;;;;;;77.50;69.18;;;;;;;14.95;100.00;101057.13;6038749;23;20033;-87
2023/06/20 01:43:19;;;;;;;72.75;64.97;;;;;;;15.00;100.00;101057.28;6038368;23;20446;-87
2023/06/20 01:45:49;;;;;;;77.38;68.55;;;;;;;15.04;100.00;101061.94;6038308;23;20019;-86
2023/06/20 01:48:18;;;;;;;89.10;70.95;;;;;;;14.84;100.00;101062.19;6038898;23;20020;-87
2023/06/20 01:50:47;;;;;;;75.80;67.57;;;;;;;14.83;100.00;101057.91;6038499;23;20019;-86
2023/06/20 01:53:18;;;;;;;83.32;75.05;;;;;;;14.85;100.00;101065.69;6038376;23;20019;-82
2023/06/20 01:55:48;;;;;;;78.50;69.78;;;;;;;14.86;100.00;101078.84;6073401;23;20436;-82
2023/06/20 01:58:24;;;;;;;86.97;78.00;;;;;;;14.77;100.00;101076.72;6095252;23;20357;-81
2023/06/20 02:00:58;;;;;;;83.85;74.57;;;;;;;14.40;100.00;101085.53;6094652;23;20030;-82
2023/06/20 02:03:28;;;;;;;92.70;83.55;;;;;;;14.70;100.00;101083.97;6094582;23;20014;-86
2023/06/20 02:05:57;;;;;;;111.18;100.22;;;;;;;14.59;100.00;101080.22;6095460;23;20023;-87
2023/06/20 02:08:27;;;;;;;96.35;86.28;;;;;;;14.91;100.00;101088.03;6095836;23;20023;-87
2023/06/20 02:10:54;;;;;;;103.20;92.68;;;;;;;14.76;100.00;101086.56;6095192;23;20024;-87
2023/06/20 02:13:23;;;;;;;120.50;108.53;;;;;;;14.77;100.00;101092.75;6095576;23;20029;-86
2023/06/20 02:15:52;;;;;;;107.65;96.43;;;;;;;14.79;100.00;101090.66;6095612;23;20018;-87
2023/06/20 02:18:20;;;;;;;113.32;101.85;;;;;;;14.84;100.00;101093.47;6095197;23;20383;-81
2023/06/20 02:20:50;;;;;;;120.68;109.88;;;;;;;14.80;100.00;101081.63;6094392;23;20571;-81
2023/06/20 02:23:24;;;;;;;102.05;91.75;;;;;;;14.59;100.00;101090.91;6094526;23;20468;-81
2023/06/20 02:26:01;;;;;;;106.97;92.03;;;;;;;14.77;100.00;101082.88;6094406;23;20030;-81
2023/06/20 02:28:30;;;;;;;95.07;85.30;;;;;;;14.88;100.00;101092.78;6095292;23;20094;-86
2023/06/20 02:30:59;;;;;;;101.28;90.00;;;;;;;14.83;100.00;101087.31;6095057;23;20023;-86
2023/06/20 02:33:26;;;;;;;89.55;79.43;;;;;;;14.70;100.00;101086.66;6095057;23;20029;-86
2023/06/20 02:35:53;;;;;;;95.45;76.90;;;;;;;14.75;100.00;101074.25;6095560;23;20105;-86
2023/06/20 02:38:29;;;;;;;87.55;78.32;;;;;;;14.95;100.00;101073.16;6095883;23;20030;-86
2023/06/20 02:40:57;;;;;;;104.35;82.45;;;;;;;15.03;100.00;101080.88;6095282;23;20018;-87
2023/06/20 02:43:24;;;;;;;83.15;74.50;;;;;;;15.10;100.00;101085.13;6095636;23;20018;-86
2023/06/20 02:46:07;;;;;;;96.78;82.47;;;;;;;15.10;100.00;101085.13;6094995;23;20030;-86
2023/06/20 02:48:43;;;;;;;80.20;71.05;;;;;;;15.18;100.00;101097.34;6094857;23;20465;-87
2023/06/20 02:51:16;;;;;;;83.32;69.65;;;;;;;15.31;100.00;101096.34;6095263;23;20041;-87
2023/06/20 02:53:58;;;;;;;82.88;73.03;;;;;;;15.38;100.00;101085.56;6095347;23;20030;-87
2023/06/20 02:56:30;;;;;;;89.25;69.65;;;;;;;15.38;100.00;101094.41;6095163;23;20026;-87
2023/06/20 02:59:10;;;;;;;77.90;65.20;;;;;;;15.38;100.00;101099.75;6095400;23;20714;-87
2023/06/20 03:01:38;;;;;;;92.70;68.30;;;;;;;15.29;100.00;101095.78;6095101;23;20050;-86
2023/06/20 03:04:16;;;;;;;83.32;70.18;;;;;;;15.38;100.00;101093.59;6095579;23;20023;-82
2023/06/20 03:07:08;;;;;;;84.50;74.88;;;;;;;15.44;100.00;101100.72;6094375;23;20050;-82
2023/06/20 03:09:38;;;;;;;85.88;69.70;;;;;;;15.55;100.00;101103.41;6079809;23;20022;-82
2023/06/20 03:12:08;;;;;;;85.82;77.25;;;;;;;15.62;100.00;101102.50;6094271;23;20023;-82
2023/06/20 03:14:43;;;;;;;82.13;74.18;;;;;;;15.63;100.00;101110.28;6095132;23;20026;-82
2023/06/20 03:17:16;;;;;;;73.63;65.65;;;;;;;15.63;100.00;101102.25;6096623;23;20046;-81
2023/06/20 03:19:43;;;;;;;73.63;65.70;;;;;;;15.56;100.00;101107.72;6096208;23;20086;-82
2023/06/20 03:22:10;;;;;;;84.50;69.10;;;;;;;15.67;100.00;101105.28;6096783;23;20022;-81
2023/06/20 03:24:38;;;;;;;76.32;67.90;;;;;;;15.69;100.00;101103.22;6096747;23;20097;-82
2023/06/20 03:27:07;;;;;;;76.03;67.38;;;;;;;15.68;100.00;101104.28;6096207;23;20058;-82
2023/06/20 03:29:34;;;;;;;81.65;68.82;;;;;;;15.63;100.00;101099.56;6096410;23;20050;-81
2023/06/20 03:32:01;;;;;;;81.07;64.53;;;;;;;15.86;100.00;101117.59;6096620;23;20384;-86
2023/06/20 03:34:27;;;;;;;77.10;68.63;;;;;;;15.84;100.00;101119.66;6096967;23;20022;-87
2023/06/20 03:36:59;;;;;;;75.65;68.18;;;;;;;15.84;100.00;101119.66;6096764;23;20030;-84
2023/06/20 03:39:26;;;;;;;74.32;67.15;;;;;;;15.93;100.00;101109.44;6096654;23;20081;-82
2023/06/20 03:41:53;;;;;;;75.28;67.22;;;;;;;15.80;100.00;101102.44;6096182;23;20018;-82
2023/06/20 03:44:22;;;;;;;75.97;66.60;;;;;;;15.83;100.00;101098.50;6096102;23;20372;-82
2023/06/20 03:46:48;;;;;;;76.18;68.00;;;;;;;16.00;100.00;101102.09;6096167;23;20457;-82
2023/06/20 03:49:15;;;;;;;77.43;69.53;;;;;;;16.08;100.00;101098.25;6096084;23;20042;-82
2023/06/20 03:51:56;;;;;;;76.80;69.35;;;;;;;16.09;100.00;101098.00;6096408;23;20065;-87
2023/06/20 03:54:23;;;;;;;77.70;69.85;;;;;;;15.87;100.00;101094.28;6091424;23;20580;-87
2023/06/20 03:56:56;;;;;;;71.55;62.53;;;;;;;15.96;100.00;101088.34;6094731;23;20028;-87
2023/06/20 03:59:25;;;;;;;73.07;64.97;;;;;;;16.15;100.00;101105.13;6095290;23;20105;-87
2023/06/20 04:01:52;;;;;;;80.97;66.32;;;;;;;16.15;100.00;101123.06;6094211;23;20019;-81
2023/06/20 04:04:19;;;;;;;76.78;69.35;;;;;;;16.17;100.00;101126.34;6093733;23;20086;-82
2023/06/20 04:06:49;;;;;;;77.85;69.70;;;;;;;16.35;100.00;101120.84;6094557;23;20023;-87
2023/06/20 04:09:16;;;;;;;79.00;64.00;;;;;;;16.21;100.00;101122.13;6095334;23;20027;-87
2023/06/20 04:11:43;;;;;;;73.68;65.53;;;;;;;16.41;100.00;101130.63;6094991;23;20621;-87
2023/06/20 04:14:10;;;;;;;71.72;62.22;;;;;;;16.38;100.00;101128.44;6094086;23;20038;-82
2023/06/20 04:16:38;;;;;;;72.93;64.88;;;;;;;16.57;100.00;101142.50;6094670;23;20027;-83
2023/06/20 04:19:06;;;;;;;72.90;65.05;;;;;;;16.66;100.00;101141.09;6094116;23;20023;-82
2023/06/20 04:21:32;;;;;;;75.72;67.85;;;;;;;16.70;100.00;101147.63;6092803;23;20404;-81
2023/06/20 04:24:04;;;;;;;73.15;65.28;;;;;;;16.75;100.00;101157.63;6092348;23;20032;-82
2023/06/20 04:26:31;;;;;;;75.82;67.68;;;;;;;16.32;100.00;101166.88;6093116;23;20026;-82
2023/06/20 04:28:58;;;;;;;78.68;70.10;;;;;;;16.90;100.00;101174.09;6093435;23;20360;-81
2023/06/20 04:31:25;;;;;;;81.45;72.82;;;;;;;16.72;100.00;101168.84;6093576;23;20372;-82
2023/06/20 04:33:56;;;;;;;84.32;75.68;;;;;;;16.89;100.00;101169.78;6092925;23;20015;-82
2023/06/20 04:36:23;;;;;;;85.70;75.97;;;;;;;16.81;100.00;101166.63;6093542;23;20026;-81
2023/06/20 04:38:51;;;;;;;82.35;73.75;;;;;;;16.93;100.00;101175.47;6093533;23;20022;-81
2023/06/20 04:41:20;;;;;;;87.25;72.93;;;;;;;16.96;100.00;101187.63;6092883;23;20026;-82
2023/06/20 04:44:00;;;;;;;79.53;70.95;;;;;;;16.95;100.00;101173.38;6093436;23;20461;-82
2023/06/20 04:46:27;;;;;;;79.88;71.03;;;;;;;16.86;100.00;101177.50;6093405;23;20677;-82
2023/06/20 04:48:56;;;;;;;90.28;81.63;;;;;;;17.09;100.00;101174.72;6093049;23;20546;-82
2023/06/20 04:51:22;;;;;;;139.73;128.77;;;;;;;17.16;100.00;101174.63;6093848;23;20030;-81
2023/06/20 04:53:49;;;;;;;120.88;111.15;;;;;;;16.96;100.00;101164.28;6092577;23;20365;-82
2023/06/20 04:56:28;;;;;;;115.28;105.05;;;;;;;17.08;100.00;101173.09;6092249;23;20496;-82
2023/06/20 04:59:07;;;;;;;114.93;104.03;;;;;;;17.09;100.00;101168.53;6093468;23;20042;-81
2023/06/20 05:01:50;;;;;;;113.40;103.03;;;;;;;17.39;100.00;101179.06;6093292;23;20018;-81
2023/06/20 05:04:20;;;;;;;87.95;78.55;;;;;;;16.88;100.00;101191.47;6094453;23;20061;-86
2023/06/20 05:06:47;;;;;;;89.35;80.80;;;;;;;17.34;100.00;101190.53;6095125;23;20026;-82
2023/06/20 05:09:14;;;;;;;95.82;77.20;;;;;;;17.69;100.00;101194.13;6091095;23;20018;-82
2023/06/20 05:11:41;;;;;;;95.40;85.88;;;;;;;17.84;100.00;101192.53;6092724;23;20028;-82
2023/06/20 05:14:17;;;;;;;101.72;91.53;;;;;;;17.74;100.00;101195.03;6094125;23;20029;-87
2023/06/20 05:16:44;;;;;;;117.20;106.72;;;;;;;17.87;100.00;101188.53;6094406;23;20023;-87
2023/06/20 05:19:11;;;;;;;105.72;95.25;;;;;;;17.93;100.00;101201.00;6093936;23;20424;-87
2023/06/20 05:21:39;;;;;;;111.00;99.53;;;;;;;18.19;100.00;101204.13;6094945;23;20115;-86
2023/06/20 05:24:06;;;;;;;107.65;96.85;;;;;;;18.21;100.00;101193.94;6094217;23;20018;-87
2023/06/20 05:26:33;;;;;;;106.45;95.32;;;;;;;18.34;100.00;101204.38;6093660;23;20030;-87
2023/06/20 05:29:00;;;;;;;110.38;99.65;;;;;;;18.22;100.00;101196.38;6094661;23;20081;-86
2023/06/20 05:31:27;;;;;;;101.15;90.50;;;;;;;18.50;100.00;101198.16;6094123;23;20027;-87
2023/06/20 05:33:54;;;;;;;106.93;96.25;;;;;;;18.33;100.00;101193.84;6093587;23;20038;-87
2023/06/20 05:36:20;;;;;;;105.18;94.78;;;;;;;18.39;100.00;101198.25;6093855;23;20093;-87
2023/06/20 05:38:49;;;;;;;113.82;102.47;;;;;;;18.68;100.00;101202.44;6094335;23;20025;-86
2023/06/20 05:41:17;;;;;;;105.05;95.10;;;;;;;18.85;100.00;101212.38;6095226;23;20488;-87
2023/06/20 05:43:43;;;;;;;103.85;94.20;;;;;;;18.74;100.00;101206.84;6095193;23;20106;-87
2023/06/20 05:46:11;;;;;;;106.55;96.40;;;;;;;18.82;100.00;101207.47;6094823;23;20029;-87
2023/06/20 05:48:38;;;;;;;108.25;97.75;;;;;;;18.53;100.00;101194.16;6094881;23;20019;-87
2023/06/20 05:51:05;;;;;;;116.57;105.53;;;;;;;18.67;100.00;101183.84;6094861;23;20549;-87
2023/06/20 05:53:32;;;;;;;108.57;98.07;;;;;;;18.70;100.00;101194.94;6094802;23;20018;-87
2023/06/20 05:56:00;;;;;;;117.25;104.65;;;;;;;18.85;100.00;101193.53;6094895;23;20028;-87
2023/06/20 05:58:28;;;;;;;159.07;146.50;;;;;;;19.00;100.00;101188.34;6094953;23;20046;-87
2023/06/20 06:00:58;;;;;;;143.02;130.98;;;;;;;18.98;100.00;101183.22;6095046;23;20021;-87
2023/06/20 06:03:25;;;;;;;114.53;103.32;;;;;;;19.22;100.00;101180.28;6094920;23;20107;-86
2023/06/20 06:05:52;;;;;;;113.80;100.88;;;;;;;19.06;100.00;101181.13;6094868;23;20018;-86
2023/06/20 06:08:20;;;;;;;109.10;98.25;;;;;;;19.25;100.00;101177.06;6094110;23;20761;-82
2023/06/20 06:10:47;;;;;;;116.28;104.90;;;;;;;19.30;100.00;101187.06;6093445;23;20019;-81
2023/06/20 06:13:15;;;;;;;110.53;99.57;;;;;;;19.37;100.00;101193.91;6093330;23;20062;-81
2023/06/20 06:15:42;;;;;;;112.95;102.25;;;;;;;19.59;100.00;101195.75;6091701;23;20029;-81
2023/06/20 06:18:09;;;;;;;120.60;108.60;;;;;;;19.57;100.00;101195.16;6091422;23;20372;-81
2023/06/20 06:20:36;;;;;;;119.32;108.25;;;;;;;19.87;100.00;101205.47;6092032;23;20015;-81
2023/06/20 06:23:03;;;;;;;119.53;108.15;;;;;;;19.90;100.00;101203.06;6093039;23;20022;-86
2023/06/20 06:25:30;;;;;;;116.22;104.60;;;;;;;19.78;100.00;101201.59;6093526;23;20022;-87
2023/06/20 06:27:56;;;;;;;119.13;107.82;;;;;;;19.65;100.00;101222.50;6093712;23;20018;-87
2023/06/20 06:30:25;;;;;;;117.55;106.22;;;;;;;19.96;100.00;101222.78;6092370;23;20027;-87
2023/06/20 06:32:52;;;;;;;119.15;107.80;;;;;;;19.89;100.00;101211.41;6092952;23;20026;-87
2023/06/20 06:35:19;;;;;;;115.43;104.90;;;;;;;19.88;100.00;101204.41;6094008;23;20014;-87
2023/06/20 06:37:48;;;;;;;114.30;103.82;;;;;;;19.90;100.00;101192.28;6093975;23;20097;-87
2023/06/20 06:40:15;;;;;;;116.97;105.85;;;;;;;19.74;100.00;101184.31;6093026;23;20025;-81
2023/06/20 06:42:42;;;;;;;120.82;109.35;;;;;;;19.68;100.00;101192.34;6092680;23;20450;-81
2023/06/20 06:45:10;;;;;;;119.50;107.78;;;;;;;19.47;100.00;101206.66;6091866;23;20033;-81
2023/06/20 06:47:38;;;;;;;119.18;107.93;;;;;;;19.76;100.00;101209.97;6091862;23;20027;-81
2023/06/20 06:50:06;;;;;;;119.13;108.03;;;;;;;19.94;100.00;101197.16;6092253;23;20270;-82
2023/06/20 06:52:34;;;;;;;116.32;105.05;;;;;;;19.80;100.00;101207.56;6091467;23;20034;-82
2023/06/20 06:55:01;;;;;;;117.75;106.82;;;;;;;19.84;100.00;101214.88;6092141;23;20019;-82
2023/06/20 06:57:28;;;;;;;121.35;109.55;;;;;;;19.94;100.00;101202.53;6092554;23;20104;-82
2023/06/20 06:59:55;;;;;;;127.00;115.07;;;;;;;20.20;100.00;101200.88;6092128;23;20022;-82
2023/06/20 07:02:22;;;;;;;129.05;116.55;;;;;;;20.26;100.00;101208.75;6090831;23;20025;-82
2023/06/20 07:04:50;;;;;;;129.32;117.35;;;;;;;20.31;100.00;101211.50;6092498;23;20105;-82
2023/06/20 07:07:17;;;;;;;132.23;119.78;;;;;;;20.46;100.00;101212.66;6092397;23;20372;-87
2023/06/20 07:09:44;;;;;;;136.30;124.30;;;;;;;20.34;100.00;101221.75;6093272;23;20109;-88
2023/06/20 07:12:12;;;;;;;133.77;122.50;;;;;;;20.33;100.00;101230.09;6093612;23;20030;-87
2023/06/20 07:14:39;;;;;;;125.00;114.03;;;;;;;20.38;100.00;101222.03;6093201;23;20022;-82
2023/06/20 07:17:08;;;;;;;119.57;108.72;;;;;;;20.37;100.00;101228.53;6093878;23;20061;-87
2023/06/20 07:19:35;;;;;;;119.50;109.05;;;;;;;20.38;100.00;101223.94;6093404;23;20486;-81
2023/06/20 07:22:04;;;;;;;113.90;103.88;;;;;;;20.01;100.00;101230.94;6092797;23;20026;-83
2023/06/20 07:24:31;;;;;;;99.63;91.57;;;;;;;19.88;100.00;101225.97;6092287;23;20045;-81
2023/06/20 07:26:58;;;;;;;92.30;84.70;;;;;;;19.95;100.00;101221.16;6092428;23;20019;-82
2023/06/20 07:29:25;;;;;;;89.95;82.38;;;;;;;20.01;100.00;101228.22;6091833;23;20032;-81
2023/06/20 07:31:51;;;;;;;91.63;84.32;;;;;;;19.90;100.00;101221.13;6092139;23;20483;-82
2023/06/20 07:34:18;;;;;;;100.30;92.20;;;;;;;19.79;100.00;101222.91;6092494;23;20033;-82
2023/06/20 07:36:45;;;;;;;99.13;90.82;;;;;;;20.06;100.00;101243.63;6091026;23;20018;-81
2023/06/20 07:39:14;;;;;;;115.72;106.20;;;;;;;20.46;100.00;101253.13;6092012;23;20018;-81
2023/06/20 07:41:47;;;;;;;119.97;110.18;;;;;;;20.64;100.00;101247.34;6093361;23;20031;-82
2023/06/20 07:44:13;;;;;;;128.45;117.85;;;;;;;20.68;100.00;101245.75;6093463;23;20413;-81
2023/06/20 07:46:41;;;;;;;106.03;97.28;;;;;;;20.58;100.00;101245.69;6093364;23;20093;-82
2023/06/20 07:49:09;;;;;;;124.47;114.18;;;;;;;20.83;100.00;101241.53;6094203;23;20392;-87
2023/06/20 07:51:36;;;;;;;122.65;112.40;;;;;;;20.85;100.00;101247.47;6094761;23;20018;-87
2023/06/20 07:54:04;;;;;;;129.90;118.97;;;;;;;21.22;100.00;101255.50;6094391;23;20019;-88
2023/06/20 07:56:33;;;;;;;127.70;117.18;;;;;;;20.91;100.00;101252.66;6094278;23;20026;-82
2023/06/20 07:58:59;;;;;;;120.43;110.63;;;;;;;21.20;100.00;101252.22;6093662;23;20022;-82
2023/06/20 08:01:29;;;;;;;114.82;105.72;;;;;;;21.23;100.00;101262.50;6094879;23;20386;-82
2023/06/20 08:04:04;;;;;;;123.13;113.35;;;;;;;21.28;100.00;101271.44;6095430;23;20364;-81
2023/06/20 08:06:43;;;;;;;111.47;102.63;;;;;;;21.05;100.00;101286.19;6095325;23;20380;-81
2023/06/20 08:09:10;;;;;;;110.25;101.35;;;;;;;21.21;100.00;101294.34;6095487;23;20018;-81
2023/06/20 08:11:40;;;;;;;117.57;107.47;;;;;;;20.92;100.00;101299.34;6095918;23;20077;-87
2023/06/20 08:14:08;;;;;;;123.15;113.18;;;;;;;20.74;100.00;101304.09;6096379;23;20101;-87
2023/06/20 08:16:53;;;;;;;123.95;113.95;;;;;;;20.16;100.00;101304.94;6096211;23;20084;-87
2023/06/20 08:19:20;;;;;;;129.30;118.38;;;;;;;20.30;100.00;101314.22;6096458;23;20033;-87
2023/06/20 08:21:51;;;;;;;125.90;115.20;;;;;;;20.59;100.00;101301.28;6096480;23;20022;-86
2023/06/20 08:24:18;;;;;;;127.95;117.32;;;;;;;21.24;100.00;101293.84;6095922;23;20023;-87
2023/06/20 08:26:47;;;;;;;122.75;112.65;;;;;;;21.42;100.00;101301.53;6096939;23;20026;-87
2023/06/20 08:29:14;;;;;;;113.85;105.32;;;;;;;21.62;100.00;101294.56;6095734;23;20071;-81
2023/06/20 08:31:42;;;;;;;78.82;73.15;;;;;;;21.44;100.00;101298.56;6094609;23;20018;-82
2023/06/20 08:34:09;;;;;;;79.18;73.78;;;;;;;21.71;100.00;101298.38;6095203;23;20475;-81
2023/06/20 08:36:36;;;;;;;62.78;58.55;;;;;;;22.25;100.00;101295.25;6092950;23;20014;-82
2023/06/20 08:39:04;;;;;;;90.10;83.60;;;;;;;21.99;100.00;101297.06;6094610;23;20053;-82
2023/06/20 08:41:31;;;;;;;97.55;90.35;;;;;;;21.84;100.00;101273.53;6094729;23;20018;-82
2023/06/20 08:44:00;;;;;;;83.18;77.10;;;;;;;21.90;100.00;101277.03;6094368;23;20025;-81
2023/06/20 08:46:26;;;;;;;93.82;87.15;;;;;;;22.34;100.00;101271.97;6095080;23;20105;-87
2023/06/20 08:48:54;;;;;;;60.83;56.42;;;;;;;22.30;100.00;101273.63;6095727;23;20029;-87
2023/06/20 08:51:23;;;;;;;77.82;71.97;;;;;;;22.84;100.00;101264.88;6096248;23;20018;-87
2023/06/20 08:53:52;;;;;;;90.95;84.30;;;;;;;23.19;100.00;101273.19;6096104;23;20022;-86
2023/06/20 08:56:34;;;;;;;115.90;107.90;;;;;;;23.59;100.00;101269.47;6095629;23;20019;-87
2023/06/20 08:59:02;;;;;;;104.15;97.20;;;;;;;23.60;100.00;101262.97;6095547;23;20026;-87
2023/06/20 09:01:35;;;;;;;111.18;103.97;;;;;;;23.45;100.00;101261.16;6095946;23;20028;-86
2023/06/20 09:04:12;;;;;;;84.22;78.38;;;;;;;23.45;100.00;101250.31;6095935;23;20057;-87
2023/06/20 09:06:50;;;;;;;76.72;71.32;;;;;;;23.58;100.00;101245.38;6095615;23;20023;-86
2023/06/20 09:09:18;;;;;;;69.28;64.28;;;;;;;23.47;100.00;101239.19;6095689;23;20082;-87
2023/06/20 09:11:49;;;;;;;45.97;42.28;;;;;;;23.73;100.00;101221.69;6095207;23;20026;-86
2023/06/20 09:14:27;;;;;;;39.15;35.95;;;;;;;23.73;100.00;101216.28;6095327;23;20027;-85
2023/06/20 09:16:54;;;;;;;41.22;37.90;;;;;;;24.14;100.00;101209.69;6095626;23;20026;-86
2023/06/20 09:19:42;;;;;;;37.67;34.67;;;;;;;23.83;100.00;101212.66;6095660;23;20015;-86
2023/06/20 09:22:18;;;;;;;35.85;33.10;;;;;;;23.49;100.00;101220.75;6095438;23;20037;-87
2023/06/20 09:24:47;;;;;;;40.58;37.35;;;;;;;23.52;100.00;101223.69;6095334;23;20026;-86
2023/06/20 09:27:21;;;;;;;39.28;36.38;;;;;;;23.76;100.00;101223.03;6095269;23;20089;-86
2023/06/20 09:30:00;;;;;;;41.80;38.63;;;;;;;23.98;100.00;101222.59;6095497;23;20018;-86
2023/06/20 09:32:27;;;;;;;38.65;35.65;;;;;;;24.11;100.00;101213.00;6094526;23;20018;-87
2023/06/20 09:34:55;;;;;;;27.13;24.95;;;;;;;24.18;100.00;101208.88;6095282;23;20029;-86
2023/06/20 09:37:36;;;;;;;37.47;34.35;;;;;;;24.43;100.00;101207.84;6095794;23;20018;-87
2023/06/20 09:40:09;;;;;;;33.45;30.83;;;;;;;24.12;100.00;101210.00;6095927;23;20030;-85
2023/06/20 09:42:35;;;;;;;;;;;;;;;24.53;100.00;101208.81;6095802;23;20022;-86
2023/06/20 09:45:04;;;;;;;33.20;31.00;;;;;;;24.30;100.00;101208.47;6095280;23;19925;-86
2023/06/20 09:47:33;;;;;;;32.78;30.38;;;;;;;24.95;100.00;101210.78;6096177;23;20031;-86
2023/06/20 09:50:04;;;;;;;28.45;26.45;;;;;;;25.09;100.00;101208.19;6095358;23;20029;-87
2023/06/20 09:52:42;;;;;;;24.60;22.80;;;;;;;25.22;100.00;101202.03;6095274;23;20019;-86
2023/06/20 09:55:11;;;;;;;24.42;22.55;;;;;;;24.65;100.00;101203.81;6093687;23;20038;-82
2023/06/20 09:57:42;;;;;;;28.50;26.70;;;;;;;25.02;100.00;101200.34;6094588;23;20045;-82
2023/06/20 10:00:15;;;;;;;30.00;27.90;;;;;;;24.60;100.00;101185.66;6093832;23;20376;-82
2023/06/20 10:03:00;;;;;;;29.77;27.77;;;;;;;25.01;100.00;101196.03;6093624;23;20018;-82
2023/06/20 10:05:34;;;;;;;28.27;26.38;;;;;;;24.99;100.00;101192.78;6094799;23;20102;-82
2023/06/20 10:08:01;;;;;;;21.38;19.83;;;;;;;24.73;100.00;101186.06;6094537;23;20050;-82
2023/06/20 10:10:30;;;;;;;24.92;23.13;;;;;;;25.19;100.00;101188.25;6093807;23;20022;-82
2023/06/20 10:12:57;;;;;;;25.20;23.50;;;;;;;25.24;100.00;101182.75;6093455;23;20027;-82
2023/06/20 10:15:26;;;;;;;24.27;22.58;;;;;;;25.32;100.00;101182.88;6093801;23;20018;-82
2023/06/20 10:17:53;;;;;;;22.33;20.52;;;;;;;25.44;100.00;101173.47;6093714;23;20018;-82
2023/06/20 10:20:28;;;;;;;22.90;21.10;;;;;;;25.04;100.00;101178.34;6093708;23;20018;-82
2023/06/20 10:22:58;;;;;;;21.67;19.98;;;;;;;24.54;100.00;101175.97;6093160;23;20812;-82
2023/06/20 10:25:35;;;;;;;22.25;20.58;;;;;;;25.02;100.00;101185.97;6093368;23;20022;-82
2023/06/20 10:28:05;;;;;;;22.73;21.02;;;;;;;25.24;100.00;101186.25;6093591;23;20419;-82
2023/06/20 10:31:04;;;;;;;23.40;21.35;;;;;;;25.81;100.00;101197.13;6093316;23;20019;-82
2023/06/20 10:33:33;;;;;;;23.02;21.40;;;;;;;26.02;100.00;101194.88;6093055;23;20413;-82
2023/06/20 10:36:06;;;;;;;22.83;21.23;;;;;;;26.01;100.00;101195.97;6093619;23;20468;-82
2023/06/20 10:38:37;;;;;;;24.02;22.33;;;;;;;26.52;100.00;101202.47;6094230;23;20456;-82
2023/06/20 10:41:08;;;;;;;21.48;19.88;;;;;;;26.71;100.00;101200.44;6093527;23;20376;-82
2023/06/20 10:43:51;;;;;;;22.25;20.75;;;;;;;26.93;100.00;101195.09;6093947;23;20437;-82
2023/06/20 10:46:23;;;;;;;20.52;18.88;;;;;;;27.11;100.00;101193.34;6091992;23;20471;-83
2023/06/20 10:48:50;;;;;;;22.10;20.58;;;;;;;27.36;100.00;101196.66;6093646;23;20022;-82
2023/06/20 10:51:17;;;;;;;22.52;20.75;;;;;;;27.44;100.00;101192.38;6093541;23;20027;-82
2023/06/20 10:53:44;;;;;;;22.00;20.30;;;;;;;26.87;100.00;101179.97;6093204;23;20350;-82
2023/06/20 10:56:26;;;;;;;22.10;20.40;;;;;;;26.57;100.00;101175.13;6092629;23;20106;-82
2023/06/20 10:59:09;;;;;;;22.80;20.98;;;;;;;26.38;100.00;101167.00;6094186;23;20019;-82
2023/06/20 11:01:38;;;;;;;21.50;19.90;;;;;;;27.01;100.00;101171.75;6093380;23;20026;-82
2023/06/20 11:04:07;;;;;;;19.58;18.08;;;;;;;26.40;100.00;101165.59;6093026;23;20086;-82
2023/06/20 11:06:34;;;;;;;20.30;18.70;;;;;;;27.03;100.00;101155.09;6093383;23;20022;-83
2023/06/20 11:09:01;;;;;;;20.30;18.80;;;;;;;26.42;100.00;101166.13;6093510;23;20018;-83
2023/06/20 11:11:35;;;;;;;21.70;20.10;;;;;;;26.72;100.00;101161.22;6093446;23;20082;-83